sensor_id;sensor_type;location;lat;lon;timestamp;pressure;altitude;pressure_sealevel;temperature;humidity
54628;BME280;40525;55.926;21.066;2022-07-19T00:00:57;101864.98;;;18.31;80.22
54628;BME280;40525;55.926;21.066;2022-07-19T00:03:25;101869.27;;;18.33;80.32
54628;BME280;40525;55.926;21.066;2022-07-19T00:05:51;101861.34;;;18.32;80.38
54628;BME280;40525;55.926;21.066;2022-07-19T00:08:18;101866.31;;;18.31;80.43
54628;BME280;40525;55.926;21.066;2022-07-19T00:10:44;101859.89;;;18.26;80.41
54628;BME280;40525;55.926;21.066;2022-07-19T00:13:11;101860.66;;;18.28;80.27
54628;BME280;40525;55.926;21.066;2022-07-19T00:15:37;101870.77;;;18.30;80.24
54628;BME280;40525;55.926;21.066;2022-07-19T00:18:05;101865.34;;;18.32;80.25
54628;BME280;40525;55.926;21.066;2022-07-19T00:20:31;101863.25;;;18.30;80.38
54628;BME280;40525;55.926;21.066;2022-07-19T00:22:58;101863.53;;;18.32;80.55
54628;BME280;40525;55.926;21.066;2022-07-19T00:25:25;101858.58;;;18.33;80.47
54628;BME280;40525;55.926;21.066;2022-07-19T00:27:51;101857.73;;;18.33;80.59
54628;BME280;40525;55.926;21.066;2022-07-19T00:30:18;101858.58;;;18.33;80.70
54628;BME280;40525;55.926;21.066;2022-07-19T00:32:45;101860.11;;;18.38;80.72
54628;BME280;40525;55.926;21.066;2022-07-19T00:35:11;101861.28;;;18.41;80.63
54628;BME280;40525;55.926;21.066;2022-07-19T00:37:38;101858.78;;;18.38;80.43
54628;BME280;40525;55.926;21.066;2022-07-19T00:40:05;101861.17;;;18.35;80.26
54628;BME280;40525;55.926;21.066;2022-07-19T00:42:32;101863.44;;;18.34;80.25
54628;BME280;40525;55.926;21.066;2022-07-19T00:44:59;101866.88;;;18.36;80.40
54628;BME280;40525;55.926;21.066;2022-07-19T00:47:25;101860.69;;;18.36;80.53
54628;BME280;40525;55.926;21.066;2022-07-19T00:49:52;101862.42;;;18.37;80.61
54628;BME280;40525;55.926;21.066;2022-07-19T00:52:19;101864.12;;;18.38;80.79
54628;BME280;40525;55.926;21.066;2022-07-19T00:54:46;101859.94;;;18.41;80.86
54628;BME280;40525;55.926;21.066;2022-07-19T00:57:15;101860.87;;;18.40;80.77
54628;BME280;40525;55.926;21.066;2022-07-19T00:59:42;101858.41;;;18.37;80.54
54628;BME280;40525;55.926;21.066;2022-07-19T01:02:11;101858.41;;;18.37;80.52
54628;BME280;40525;55.926;21.066;2022-07-19T01:04:38;101858.20;;;18.40;80.57
54628;BME280;40525;55.926;21.066;2022-07-19T01:07:06;101852.50;;;18.39;80.60
54628;BME280;40525;55.926;21.066;2022-07-19T01:09:36;101856.87;;;18.40;80.73
54628;BME280;40525;55.926;21.066;2022-07-19T01:12:03;101851.08;;;18.40;80.81
54628;BME280;40525;55.926;21.066;2022-07-19T01:14:31;101848.41;;;18.40;80.88
54628;BME280;40525;55.926;21.066;2022-07-19T01:16:59;101846.02;;;18.43;80.83
54628;BME280;40525;55.926;21.066;2022-07-19T01:19:26;101849.53;;;18.43;80.62
54628;BME280;40525;55.926;21.066;2022-07-19T01:21:53;101842.58;;;18.41;80.47
54628;BME280;40525;55.926;21.066;2022-07-19T01:24:19;101838.75;;;18.38;80.53
54628;BME280;40525;55.926;21.066;2022-07-19T01:26:46;101837.05;;;18.37;80.90
54628;BME280;40525;55.926;21.066;2022-07-19T01:29:16;101835.97;;;18.32;80.93
54628;BME280;40525;55.926;21.066;2022-07-19T01:31:43;101838.73;;;18.30;80.99
54628;BME280;40525;55.926;21.066;2022-07-19T01:34:09;101838.36;;;18.29;81.06
54628;BME280;40525;55.926;21.066;2022-07-19T01:36:36;101831.86;;;18.26;81.13
54628;BME280;40525;55.926;21.066;2022-07-19T01:39:03;101830.73;;;18.23;81.06
54628;BME280;40525;55.926;21.066;2022-07-19T01:41:29;101822.41;;;18.21;81.06
54628;BME280;40525;55.926;21.066;2022-07-19T01:43:56;101825.16;;;18.19;81.05
54628;BME280;40525;55.926;21.066;2022-07-19T01:46:22;101826.41;;;18.21;81.17
54628;BME280;40525;55.926;21.066;2022-07-19T01:48:49;101826.33;;;18.22;81.40
54628;BME280;40525;55.926;21.066;2022-07-19T01:51:15;101827.17;;;18.23;81.45
54628;BME280;40525;55.926;21.066;2022-07-19T01:53:42;101824.91;;;18.24;81.57
54628;BME280;40525;55.926;21.066;2022-07-19T01:56:08;101817.38;;;18.23;81.53
54628;BME280;40525;55.926;21.066;2022-07-19T01:58:35;101820.81;;;18.25;81.30
54628;BME280;40525;55.926;21.066;2022-07-19T02:01:01;101814.70;;;18.23;81.06
54628;BME280;40525;55.926;21.066;2022-07-19T02:03:28;101815.47;;;18.25;80.94
54628;BME280;40525;55.926;21.066;2022-07-19T02:05:55;101813.37;;;18.23;80.92
54628;BME280;40525;55.926;21.066;2022-07-19T02:08:21;101816.61;;;18.21;81.18
54628;BME280;40525;55.926;21.066;2022-07-19T02:10:48;101812.41;;;18.24;81.23
54628;BME280;40525;55.926;21.066;2022-07-19T02:13:15;101813.83;;;18.23;81.33
54628;BME280;40525;55.926;21.066;2022-07-19T02:15:42;101817.38;;;18.23;81.38
54628;BME280;40525;55.926;21.066;2022-07-19T02:18:08;101816.61;;;18.21;81.32
54628;BME280;40525;55.926;21.066;2022-07-19T02:20:35;101812.30;;;18.19;81.27
54628;BME280;40525;55.926;21.066;2022-07-19T02:23:01;101802.67;;;18.16;81.25
54628;BME280;40525;55.926;21.066;2022-07-19T02:25:28;101801.52;;;18.13;81.39
54628;BME280;40525;55.926;21.066;2022-07-19T02:27:55;101806.28;;;18.15;81.57
54628;BME280;40525;55.926;21.066;2022-07-19T02:30:22;101802.67;;;18.16;81.54
54628;BME280;40525;55.926;21.066;2022-07-19T02:32:49;101808.77;;;18.18;81.61
54628;BME280;40525;55.926;21.066;2022-07-19T02:35:16;101806.95;;;18.19;81.56
54628;BME280;40525;55.926;21.066;2022-07-19T02:37:44;101801.53;;;18.20;81.57
54628;BME280;40525;55.926;21.066;2022-07-19T02:40:11;101804.20;;;18.20;81.54
54628;BME280;40525;55.926;21.066;2022-07-19T02:42:37;101803.80;;;18.19;81.40
54628;BME280;40525;55.926;21.066;2022-07-19T02:45:05;101801.53;;;18.20;81.28
54628;BME280;40525;55.926;21.066;2022-07-19T02:47:31;101809.37;;;18.23;81.12
54628;BME280;40525;55.926;21.066;2022-07-19T02:49:58;101799.53;;;18.24;81.17
54628;BME280;40525;55.926;21.066;2022-07-19T02:52:25;101809.37;;;18.23;81.32
54628;BME280;40525;55.926;21.066;2022-07-19T02:54:51;101806.70;;;18.23;81.39
54628;BME280;40525;55.926;21.066;2022-07-19T02:57:18;101804.97;;;18.22;81.49
54628;BME280;40525;55.926;21.066;2022-07-19T02:59:44;101799.53;;;18.24;81.57
54628;BME280;40525;55.926;21.066;2022-07-19T03:02:11;101800.30;;;18.26;81.52
54628;BME280;40525;55.926;21.066;2022-07-19T03:04:37;101801.72;;;18.24;81.43
54628;BME280;40525;55.926;21.066;2022-07-19T03:07:04;101814.70;;;18.23;81.49
54628;BME280;40525;55.926;21.066;2022-07-19T03:09:31;101813.55;;;18.20;81.44
54628;BME280;40525;55.926;21.066;2022-07-19T03:11:58;101811.64;;;18.22;81.52
54628;BME280;40525;55.926;21.066;2022-07-19T03:14:24;101811.92;;;18.25;81.54
54628;BME280;40525;55.926;21.066;2022-07-19T03:16:53;101807.91;;;18.25;81.76
54628;BME280;40525;55.926;21.066;2022-07-19T03:19:19;101829.50;;;18.29;81.79
54628;BME280;40525;55.926;21.066;2022-07-19T03:21:46;101823.67;;;18.29;81.81
54628;BME280;40525;55.926;21.066;2022-07-19T03:24:13;101815.94;;;18.32;81.90
54628;BME280;40525;55.926;21.066;2022-07-19T03:26:39;101812.25;;;18.34;81.81
54628;BME280;40525;55.926;21.066;2022-07-19T03:29:06;101814.80;;;18.36;81.60
54628;BME280;40525;55.926;21.066;2022-07-19T03:31:32;101802.90;;;18.34;81.62
54628;BME280;40525;55.926;21.066;2022-07-19T03:33:59;101807.27;;;18.36;81.42
54628;BME280;40525;55.926;21.066;2022-07-19T03:36:26;101808.61;;;18.36;81.49
54628;BME280;40525;55.926;21.066;2022-07-19T03:38:52;101811.27;;;18.36;81.58
54628;BME280;40525;55.926;21.066;2022-07-19T03:41:19;101809.00;;;18.37;81.67
54628;BME280;40525;55.926;21.066;2022-07-19T03:43:46;101815.56;;;18.38;81.65
54628;BME280;40525;55.926;21.066;2022-07-19T03:46:12;101824.73;;;18.41;81.70
54628;BME280;40525;55.926;21.066;2022-07-19T03:48:39;101817.97;;;18.43;81.63
54628;BME280;40525;55.926;21.066;2022-07-19T03:51:05;101813.39;;;18.45;81.62
54628;BME280;40525;55.926;21.066;2022-07-19T03:53:33;101816.25;;;18.49;81.65
54628;BME280;40525;55.926;21.066;2022-07-19T03:56:00;101818.44;;;18.49;81.52
54628;BME280;40525;55.926;21.066;2022-07-19T03:58:27;101817.02;;;18.51;81.36
54628;BME280;40525;55.926;21.066;2022-07-19T04:00:54;101823.20;;;18.51;81.30
54628;BME280;40525;55.926;21.066;2022-07-19T04:03:20;101823.03;;;18.54;81.40
54628;BME280;40525;55.926;21.066;2022-07-19T04:05:48;101821.20;;;18.55;81.32
54628;BME280;40525;55.926;21.066;2022-07-19T04:08:14;101820.18;;;18.58;81.43
54628;BME280;40525;55.926;21.066;2022-07-19T04:10:41;101824.46;;;18.60;81.41
54628;BME280;40525;55.926;21.066;2022-07-19T04:13:07;101827.05;;;18.62;81.30
54628;BME280;40525;55.926;21.066;2022-07-19T04:15:34;101823.31;;;18.64;81.15
54628;BME280;40525;55.926;21.066;2022-07-19T04:18:01;101824.47;;;18.67;80.89
54628;BME280;40525;55.926;21.066;2022-07-19T04:20:27;101820.37;;;18.69;80.92
54628;BME280;40525;55.926;21.066;2022-07-19T04:22:59;101821.41;;;18.73;80.86
54628;BME280;40525;55.926;21.066;2022-07-19T04:25:25;101817.67;;;18.76;80.98
54628;BME280;40525;55.926;21.066;2022-07-19T04:27:52;101825.45;;;18.81;80.99
54628;BME280;40525;55.926;21.066;2022-07-19T04:30:20;101825.16;;;18.85;81.02
54628;BME280;40525;55.926;21.066;2022-07-19T04:32:46;101828.89;;;18.90;80.99
54628;BME280;40525;55.926;21.066;2022-07-19T04:35:13;101824.58;;;18.95;80.84
54628;BME280;40525;55.926;21.066;2022-07-19T04:37:42;101821.23;;;18.98;80.65
54628;BME280;40525;55.926;21.066;2022-07-19T04:40:12;101822.48;;;19.00;80.31
54628;BME280;40525;55.926;21.066;2022-07-19T04:42:38;101806.63;;;18.97;80.34
54628;BME280;40525;55.926;21.066;2022-07-19T04:45:06;101808.05;;;19.02;80.35
54628;BME280;40525;55.926;21.066;2022-07-19T04:47:33;101804.80;;;19.04;80.26
54628;BME280;40525;55.926;21.066;2022-07-19T04:49:59;101807.86;;;19.05;80.29
54628;BME280;40525;55.926;21.066;2022-07-19T04:52:26;101798.77;;;19.08;80.15
54628;BME280;40525;55.926;21.066;2022-07-19T04:54:53;101795.61;;;19.16;79.78
54628;BME280;40525;55.926;21.066;2022-07-19T04:57:20;101801.12;;;19.20;79.55
54628;BME280;40525;55.926;21.066;2022-07-19T04:59:46;101803.88;;;19.25;79.34
54628;BME280;40525;55.926;21.066;2022-07-19T05:02:13;101803.78;;;19.34;79.33
54628;BME280;40525;55.926;21.066;2022-07-19T05:04:39;101808.13;;;19.42;79.02
54628;BME280;40525;55.926;21.066;2022-07-19T05:07:06;101810.81;;;19.42;78.85
54628;BME280;40525;55.926;21.066;2022-07-19T05:09:33;101818.45;;;19.48;78.73
54628;BME280;40525;55.926;21.066;2022-07-19T05:11:59;101817.30;;;19.53;78.23
54628;BME280;40525;55.926;21.066;2022-07-19T05:14:26;101810.51;;;19.54;78.00
54628;BME280;40525;55.926;21.066;2022-07-19T05:16:53;101807.61;;;19.57;77.92
54628;BME280;40525;55.926;21.066;2022-07-19T05:19:19;101803.69;;;19.56;77.60
54628;BME280;40525;55.926;21.066;2022-07-19T05:21:46;101801.33;;;19.51;77.35
54628;BME280;40525;55.926;21.066;2022-07-19T05:24:13;101798.97;;;19.46;77.34
54628;BME280;40525;55.926;21.066;2022-07-19T05:26:40;101807.95;;;19.45;77.46
54628;BME280;40525;55.926;21.066;2022-07-19T05:29:07;101808.53;;;19.43;77.28
54628;BME280;40525;55.926;21.066;2022-07-19T05:31:33;101808.04;;;19.44;77.42
54628;BME280;40525;55.926;21.066;2022-07-19T05:34:00;101802.41;;;19.48;77.51
54628;BME280;40525;55.926;21.066;2022-07-19T05:36:26;101795.89;;;19.53;77.55
54628;BME280;40525;55.926;21.066;2022-07-19T05:38:53;101799.31;;;19.55;77.43
54628;BME280;40525;55.926;21.066;2022-07-19T05:41:21;101796.83;;;19.51;77.57
54628;BME280;40525;55.926;21.066;2022-07-19T05:43:48;101794.33;;;19.56;77.65
54628;BME280;40525;55.926;21.066;2022-07-19T05:46:15;101799.39;;;19.60;77.63
54628;BME280;40525;55.926;21.066;2022-07-19T05:48:42;101801.97;;;19.62;77.66
54628;BME280;40525;55.926;21.066;2022-07-19T05:51:09;101800.23;;;19.61;77.67
54628;BME280;40525;55.926;21.066;2022-07-19T05:53:37;101800.05;;;19.64;77.54
54628;BME280;40525;55.926;21.066;2022-07-19T05:56:04;101805.59;;;19.61;77.46
54628;BME280;40525;55.926;21.066;2022-07-19T05:58:31;101797.39;;;19.57;77.57
54628;BME280;40525;55.926;21.066;2022-07-19T06:00:58;101792.98;;;19.56;77.64
54628;BME280;40525;55.926;21.066;2022-07-19T06:03:43;101790.53;;;19.53;77.54
54628;BME280;40525;55.926;21.066;2022-07-19T06:06:10;101789.87;;;19.49;77.76
54628;BME280;40525;55.926;21.066;2022-07-19T06:08:37;101790.89;;;19.54;77.79
54628;BME280;40525;55.926;21.066;2022-07-19T06:11:04;101787.27;;;19.55;77.77
54628;BME280;40525;55.926;21.066;2022-07-19T06:13:30;101802.55;;;19.60;77.78
54628;BME280;40525;55.926;21.066;2022-07-19T06:15:57;101788.59;;;19.62;77.62
54628;BME280;40525;55.926;21.066;2022-07-19T06:18:24;101796.39;;;19.65;77.37
54628;BME280;40525;55.926;21.066;2022-07-19T06:20:50;101789.51;;;19.68;77.15
54628;BME280;40525;55.926;21.066;2022-07-19T06:23:17;101792.78;;;19.73;76.75
54628;BME280;40525;55.926;21.066;2022-07-19T06:25:43;101793.14;;;19.74;76.67
54628;BME280;40525;55.926;21.066;2022-07-19T06:28:11;101800.58;;;19.76;76.49
54628;BME280;40525;55.926;21.066;2022-07-19T06:30:37;101798.56;;;19.80;76.34
54628;BME280;40525;55.926;21.066;2022-07-19T06:33:04;101786.52;;;19.80;76.31
54628;BME280;40525;55.926;21.066;2022-07-19T06:35:31;101787.43;;;19.86;76.48
54628;BME280;40525;55.926;21.066;2022-07-19T06:37:57;101784.42;;;19.98;76.11
54628;BME280;40525;55.926;21.066;2022-07-19T06:40:24;101790.69;;;20.04;75.22
54628;BME280;40525;55.926;21.066;2022-07-19T06:42:50;101781.52;;;20.01;74.97
54628;BME280;40525;55.926;21.066;2022-07-19T06:45:17;101786.12;;;19.99;74.85
54628;BME280;40525;55.926;21.066;2022-07-19T06:47:45;101787.39;;;19.93;74.71
54628;BME280;40525;55.926;21.066;2022-07-19T06:50:12;101782.43;;;19.94;74.83
54628;BME280;40525;55.926;21.066;2022-07-19T06:52:39;101782.27;;;20.03;74.65
54628;BME280;40525;55.926;21.066;2022-07-19T06:55:06;101776.70;;;20.06;74.48
54628;BME280;40525;55.926;21.066;2022-07-19T06:57:38;101775.43;;;20.12;74.47
54628;BME280;40525;55.926;21.066;2022-07-19T07:00:03;101770.98;;;20.18;73.95
54628;BME280;40525;55.926;21.066;2022-07-19T07:02:31;101777.08;;;20.20;74.01
54628;BME280;40525;55.926;21.066;2022-07-19T07:04:58;101774.30;;;20.21;73.61
54628;BME280;40525;55.926;21.066;2022-07-19T07:07:24;101783.68;;;20.21;73.27
54628;BME280;40525;55.926;21.066;2022-07-19T07:09:51;101775.55;;;20.23;73.59
54628;BME280;40525;55.926;21.066;2022-07-19T07:12:18;101793.76;;;20.31;73.29
54628;BME280;40525;55.926;21.066;2022-07-19T07:14:44;101776.45;;;20.29;73.26
54628;BME280;40525;55.926;21.066;2022-07-19T07:17:11;101782.02;;;20.39;73.12
54628;BME280;40525;55.926;21.066;2022-07-19T07:19:38;101791.88;;;20.38;72.91
54628;BME280;40525;55.926;21.066;2022-07-19T07:22:04;101784.59;;;20.40;72.98
54628;BME280;40525;55.926;21.066;2022-07-19T07:24:31;101789.80;;;20.49;73.08
54628;BME280;40525;55.926;21.066;2022-07-19T07:26:58;101783.09;;;20.62;72.90
54628;BME280;40525;55.926;21.066;2022-07-19T07:29:24;101792.70;;;20.72;72.63
54628;BME280;40525;55.926;21.066;2022-07-19T07:31:51;101801.69;;;20.83;72.48
54628;BME280;40525;55.926;21.066;2022-07-19T07:34:17;101795.48;;;20.89;72.08
54628;BME280;40525;55.926;21.066;2022-07-19T07:36:44;101797.22;;;20.90;71.79
54628;BME280;40525;55.926;21.066;2022-07-19T07:39:11;101795.03;;;20.89;71.80
54628;BME280;40525;55.926;21.066;2022-07-19T07:41:38;101804.45;;;20.95;71.68
54628;BME280;40525;55.926;21.066;2022-07-19T07:44:05;101796.30;;;20.96;71.55
54628;BME280;40525;55.926;21.066;2022-07-19T07:46:31;101801.03;;;20.93;71.12
54628;BME280;40525;55.926;21.066;2022-07-19T07:48:58;101812.91;;;20.89;70.96
54628;BME280;40525;55.926;21.066;2022-07-19T07:51:25;101806.77;;;20.81;71.16
54628;BME280;40525;55.926;21.066;2022-07-19T07:53:52;101802.39;;;20.80;71.55
54628;BME280;40525;55.926;21.066;2022-07-19T07:56:18;101803.88;;;20.84;71.30
54628;BME280;40525;55.926;21.066;2022-07-19T07:58:45;101799.26;;;20.86;71.23
54628;BME280;40525;55.926;21.066;2022-07-19T08:01:11;101802.19;;;20.89;71.49
54628;BME280;40525;55.926;21.066;2022-07-19T08:03:38;101803.22;;;20.93;71.66
54628;BME280;40525;55.926;21.066;2022-07-19T08:06:07;101798.89;;;21.03;71.56
54628;BME280;40525;55.926;21.066;2022-07-19T08:08:34;101798.47;;;21.10;71.09
54628;BME280;40525;55.926;21.066;2022-07-19T08:11:01;101798.11;;;21.14;71.16
54628;BME280;40525;55.926;21.066;2022-07-19T08:13:28;101798.43;;;21.28;70.97
54628;BME280;40525;55.926;21.066;2022-07-19T08:15:54;101794.36;;;21.41;70.62
54628;BME280;40525;55.926;21.066;2022-07-19T08:18:21;101796.39;;;21.50;70.57
54628;BME280;40525;55.926;21.066;2022-07-19T08:20:48;101801.19;;;21.58;70.22
54628;BME280;40525;55.926;21.066;2022-07-19T08:23:15;101808.72;;;21.53;69.60
54628;BME280;40525;55.926;21.066;2022-07-19T08:25:41;101798.59;;;21.51;69.73
54628;BME280;40525;55.926;21.066;2022-07-19T08:28:08;101805.33;;;21.56;69.68
54628;BME280;40525;55.926;21.066;2022-07-19T08:30:34;101809.98;;;21.60;69.47
54628;BME280;40525;55.926;21.066;2022-07-19T08:33:01;101805.12;;;21.65;69.66
54628;BME280;40525;55.926;21.066;2022-07-19T08:35:30;101807.37;;;21.77;69.58
54628;BME280;40525;55.926;21.066;2022-07-19T08:37:56;101820.59;;;21.86;68.95
54628;BME280;40525;55.926;21.066;2022-07-19T08:40:23;101821.20;;;21.83;68.73
54628;BME280;40525;55.926;21.066;2022-07-19T08:42:50;101813.10;;;21.72;68.44
54628;BME280;40525;55.926;21.066;2022-07-19T08:45:18;101820.14;;;21.68;68.66
54628;BME280;40525;55.926;21.066;2022-07-19T08:47:46;101821.84;;;21.63;68.88
54628;BME280;40525;55.926;21.066;2022-07-19T08:50:15;101827.05;;;21.53;68.63
54628;BME280;40525;55.926;21.066;2022-07-19T08:52:41;101831.61;;;21.45;68.73
54628;BME280;40525;55.926;21.066;2022-07-19T08:55:08;101821.76;;;21.46;69.16
54628;BME280;40525;55.926;21.066;2022-07-19T08:57:36;101824.00;;;21.58;69.01
54628;BME280;40525;55.926;21.066;2022-07-19T09:00:21;101813.81;;;21.69;69.12
54628;BME280;40525;55.926;21.066;2022-07-19T09:03:02;101817.42;;;21.86;68.90
54628;BME280;40525;55.926;21.066;2022-07-19T09:05:31;101820.27;;;22.01;69.16
54628;BME280;40525;55.926;21.066;2022-07-19T09:08:11;101817.25;;;22.17;68.65
54628;BME280;40525;55.926;21.066;2022-07-19T09:10:43;101810.06;;;22.18;67.87
54628;BME280;40525;55.926;21.066;2022-07-19T09:13:16;101810.53;;;22.17;67.87
54628;BME280;40525;55.926;21.066;2022-07-19T09:15:52;101811.52;;;22.16;67.57
54628;BME280;40525;55.926;21.066;2022-07-19T09:18:23;101804.80;;;22.16;67.49
54628;BME280;40525;55.926;21.066;2022-07-19T09:20:54;101805.55;;;22.24;67.61
54628;BME280;40525;55.926;21.066;2022-07-19T09:23:24;101800.95;;;22.32;67.31
54628;BME280;40525;55.926;21.066;2022-07-19T09:25:59;101805.21;;;22.29;66.74
54628;BME280;40525;55.926;21.066;2022-07-19T09:28:28;101804.88;;;22.33;67.25
54628;BME280;40525;55.926;21.066;2022-07-19T09:30:58;101808.19;;;22.43;67.00
54628;BME280;40525;55.926;21.066;2022-07-19T09:33:28;101803.55;;;22.50;66.96
54628;BME280;40525;55.926;21.066;2022-07-19T09:35:58;101799.87;;;22.63;66.87
54628;BME280;40525;55.926;21.066;2022-07-19T09:38:31;101796.83;;;22.61;66.32
54628;BME280;40525;55.926;21.066;2022-07-19T09:41:14;101808.92;;;22.50;66.30
54628;BME280;40525;55.926;21.066;2022-07-19T09:43:55;101797.17;;;22.51;66.58
54628;BME280;40525;55.926;21.066;2022-07-19T09:46:38;101798.79;;;22.59;66.37
54628;BME280;40525;55.926;21.066;2022-07-19T09:49:11;101797.45;;;22.65;66.28
54628;BME280;40525;55.926;21.066;2022-07-19T09:51:41;101796.69;;;22.69;66.22
54628;BME280;40525;55.926;21.066;2022-07-19T09:54:11;101789.49;;;22.75;66.00
54628;BME280;40525;55.926;21.066;2022-07-19T09:56:41;101782.39;;;22.74;65.79
54628;BME280;40525;55.926;21.066;2022-07-19T09:59:09;101792.79;;;22.84;65.79
54628;BME280;40525;55.926;21.066;2022-07-19T10:01:39;101793.87;;;22.87;65.42
54628;BME280;40525;55.926;21.066;2022-07-19T10:04:09;101787.27;;;22.74;65.26
54628;BME280;40525;55.926;21.066;2022-07-19T10:06:38;101787.77;;;22.57;65.67
54628;BME280;40525;55.926;21.066;2022-07-19T10:09:10;101795.34;;;22.57;66.24
54628;BME280;40525;55.926;21.066;2022-07-19T10:11:39;101786.19;;;22.60;66.43
54628;BME280;40525;55.926;21.066;2022-07-19T10:14:06;101791.56;;;22.77;66.82
54628;BME280;40525;55.926;21.066;2022-07-19T10:19:43;101787.75;;;22.96;65.83
54628;BME280;40525;55.926;21.066;2022-07-19T10:22:20;101791.39;;;23.01;65.71
54628;BME280;40525;55.926;21.066;2022-07-19T10:24:53;101790.56;;;23.12;65.73
54628;BME280;40525;55.926;21.066;2022-07-19T10:32:47;101789.91;;;23.25;65.42
54628;BME280;40525;55.926;21.066;2022-07-19T10:35:16;101792.11;;;23.26;65.21
54628;BME280;40525;55.926;21.066;2022-07-19T10:40:45;101781.83;;;23.31;65.19
54628;BME280;40525;55.926;21.066;2022-07-19T10:43:17;101779.09;;;23.42;65.29
54628;BME280;40525;55.926;21.066;2022-07-19T10:48:35;101783.17;;;23.63;63.99
54628;BME280;40525;55.926;21.066;2022-07-19T10:51:03;101796.64;;;23.63;64.06
54628;BME280;40525;55.926;21.066;2022-07-19T10:56:21;101788.98;;;23.53;64.09
54628;BME280;40525;55.926;21.066;2022-07-19T10:59:04;101792.87;;;23.60;64.17
54628;BME280;40525;55.926;21.066;2022-07-19T11:01:34;101792.95;;;23.70;64.26
54628;BME280;40525;55.926;21.066;2022-07-19T11:07:12;101789.37;;;23.69;63.52
54628;BME280;40525;55.926;21.066;2022-07-19T11:09:42;101791.77;;;23.57;63.53
54628;BME280;40525;55.926;21.066;2022-07-19T11:12:25;101793.30;;;23.38;63.87
54628;BME280;40525;55.926;21.066;2022-07-19T11:14:59;101794.55;;;23.34;64.44
54628;BME280;40525;55.926;21.066;2022-07-19T11:17:27;101806.34;;;23.60;64.76
54628;BME280;40525;55.926;21.066;2022-07-19T11:20:08;101807.44;;;23.90;64.31
54628;BME280;40525;55.926;21.066;2022-07-19T11:22:44;101794.12;;;24.09;63.63
54628;BME280;40525;55.926;21.066;2022-07-19T11:25:09;101804.20;;;24.23;62.99
54628;BME280;40525;55.926;21.066;2022-07-19T11:27:45;101798.07;;;24.42;63.29
54628;BME280;40525;55.926;21.066;2022-07-19T11:30:14;101794.98;;;24.62;62.81
54628;BME280;40525;55.926;21.066;2022-07-19T11:32:42;101800.66;;;24.74;61.63
54628;BME280;40525;55.926;21.066;2022-07-19T11:35:12;101807.40;;;24.74;61.69
54628;BME280;40525;55.926;21.066;2022-07-19T11:37:41;101803.59;;;24.86;61.58
54628;BME280;40525;55.926;21.066;2022-07-19T11:40:09;101804.70;;;24.99;61.63
54628;BME280;40525;55.926;21.066;2022-07-19T11:42:41;101807.94;;;25.08;60.79
54628;BME280;40525;55.926;21.066;2022-07-19T11:45:12;101798.98;;;25.23;60.90
54628;BME280;40525;55.926;21.066;2022-07-19T11:47:42;101800.98;;;25.41;60.39
54628;BME280;40525;55.926;21.066;2022-07-19T11:50:12;101801.12;;;25.49;60.19
54628;BME280;40525;55.926;21.066;2022-07-19T11:52:48;101798.99;;;25.62;60.04
54628;BME280;40525;55.926;21.066;2022-07-19T11:55:33;101794.36;;;25.68;59.95
54628;BME280;40525;55.926;21.066;2022-07-19T11:57:53;101804.75;;;26.02;59.15
54628;BME280;40525;55.926;21.066;2022-07-19T12:00:21;101811.51;;;26.02;58.61
54628;BME280;40525;55.926;21.066;2022-07-19T12:02:58;101811.45;;;25.98;58.41
54628;BME280;40525;55.926;21.066;2022-07-19T12:05:32;101807.80;;;26.13;58.74
54628;BME280;40525;55.926;21.066;2022-07-19T12:08:05;101824.20;;;26.35;58.15
54628;BME280;40525;55.926;21.066;2022-07-19T12:10:42;101825.23;;;26.38;57.59
54628;BME280;40525;55.926;21.066;2022-07-19T12:13:13;101814.61;;;26.51;57.00
54628;BME280;40525;55.926;21.066;2022-07-19T12:15:55;101828.42;;;26.47;56.73
54628;BME280;40525;55.926;21.066;2022-07-19T12:21:15;101829.55;;;26.55;56.86
54628;BME280;40525;55.926;21.066;2022-07-19T12:26:38;101839.02;;;26.55;56.20
54628;BME280;40525;55.926;21.066;2022-07-19T12:32:06;101827.27;;;26.26;56.32
54628;BME280;40525;55.926;21.066;2022-07-19T12:34:54;101821.60;;;26.43;55.96
54628;BME280;40525;55.926;21.066;2022-07-19T12:37:31;101828.14;;;26.51;55.79
54628;BME280;40525;55.926;21.066;2022-07-19T12:42:53;101822.91;;;26.63;55.16
54628;BME280;40525;55.926;21.066;2022-07-19T12:45:23;101821.48;;;26.59;55.21
54628;BME280;40525;55.926;21.066;2022-07-19T12:47:51;101816.62;;;26.39;55.67
54628;BME280;40525;55.926;21.066;2022-07-19T12:50:24;101819.93;;;26.56;55.31
54628;BME280;40525;55.926;21.066;2022-07-19T12:52:54;101812.38;;;26.50;55.81
54628;BME280;40525;55.926;21.066;2022-07-19T12:55:23;101812.15;;;26.57;55.19
54628;BME280;40525;55.926;21.066;2022-07-19T12:57:51;101807.43;;;26.45;55.13
54628;BME280;40525;55.926;21.066;2022-07-19T13:00:20;101819.89;;;26.19;55.45
54628;BME280;40525;55.926;21.066;2022-07-19T13:02:49;101812.64;;;26.33;56.12
54628;BME280;40525;55.926;21.066;2022-07-19T13:05:17;101818.85;;;26.63;55.78
54628;BME280;40525;55.926;21.066;2022-07-19T13:07:44;101816.31;;;27.03;55.09
54628;BME280;40525;55.926;21.066;2022-07-19T13:10:11;101822.33;;;27.38;54.65
54628;BME280;40525;55.926;21.066;2022-07-19T13:12:39;101822.91;;;27.82;53.70
54628;BME280;40525;55.926;21.066;2022-07-19T13:15:07;101832.89;;;28.17;53.04
54628;BME280;40525;55.926;21.066;2022-07-19T13:17:35;101825.91;;;28.41;52.95